To NAV CANADA Home Page Login to a new session Search on AWWS site Feedback and Comments Disclaimer Vers la page française équivalente Tips FAQ What's new on the site To the Forecasts and Observations / NOTAM section To "File a Flight Plan" website Publications and other links Update of the User's profile FIC Telephone Numbers My Weather Data Folder Route Weather Data Regional Weather Data Local Weather Data To the Forecasts and Observations / NOTAM section
Request Generated 07/05/2015 at 13:16:37 UTC . Weather information available at that time is displayed.

METAR/TAF

WHITEHORSE/ERIK NIELSEN INTL/YT    

METAR CYXY 051300Z 00000KT 30SM SCT120 BKN190 11/08 A3019 RMK AC3AC2
SLP236=
METAR CYXY 051200Z 24003KT 30SM SCT190 11/07 A3018 RMK AC3 SLP234=
METAR CYXY 051100Z 25003KT 30SM SCT190 12/07 A3018 RMK AC4 SLP234=

TAF CYXY 051139Z 0512/0612 VRB03KT P6SM SCT080 BKN180
BECMG 0518/0520 36008KT
FM060400 VRB03KT P6SM BKN080
RMK NXT FCST BY 051800Z=
Your time UTC time
Weather data provided by Environment Canada and NAV CANADA